Time;durP1;ratioP1;P1;durP2;ratioP2;P2;SDS_P1;SDS_P2;PMS_P1;PMS_P2;Temp;Humidity;BMP_temperature;BMP_pressure;BME280_temperature;BME280_humidity;BME280_pressure;Samples;Min_cycle;Max_cycle;Signal;HPM_P1;HPM_P2
2023/06/18 01:07:37;;;;;;;6.50;5.90;;;;;;;22.14;100.00;99167.17;101428;1295;601397;-64
2023/06/18 01:10:14;;;;;;;7.30;6.60;;;;;;;22.32;100.00;99162.39;103526;1272;59774;-66
2023/06/18 01:12:48;;;;;;;7.40;6.40;;;;;;;22.35;100.00;99164.61;103481;1270;59698;-64
2023/06/18 01:15:18;;;;;;;6.90;6.20;;;;;;;22.35;100.00;99162.86;103683;1270;72328;-63
2023/06/18 01:17:48;;;;;;;7.40;6.60;;;;;;;22.38;100.00;99167.55;103782;1270;70188;-66
2023/06/18 01:20:17;;;;;;;10.10;6.10;;;;;;;22.40;100.00;99168.40;103379;1262;277410;-64
2023/06/18 01:23:01;;;;;;;8.40;6.80;;;;;;;22.36;100.00;99166.69;103806;1269;59903;-63
2023/06/18 01:25:32;;;;;;;7.30;6.60;;;;;;;22.36;100.00;99166.11;104032;1269;59671;-64
2023/06/18 01:28:01;;;;;;;7.10;6.40;;;;;;;22.34;100.00;99166.54;103627;1262;72440;-64
2023/06/18 01:30:29;;;;;;;8.20;6.20;;;;;;;22.33;100.00;99167.89;103713;1269;69145;-64
2023/06/18 01:32:57;;;;;;;6.80;6.30;;;;;;;22.27;100.00;99168.08;105408;1260;72482;-65
2023/06/18 01:35:25;;;;;;;6.50;6.00;;;;;;;22.24;100.00;99162.16;107303;1261;59330;-65
2023/06/18 01:38:21;;;;;;;7.50;6.50;;;;;;;22.25;100.00;99166.52;107450;1259;59797;-66
2023/06/18 01:40:54;;;;;;;7.20;6.50;;;;;;;22.24;100.00;99167.42;107439;1261;72880;-66
2023/06/18 01:43:29;;;;;;;9.40;6.40;;;;;;;22.31;100.00;99171.82;107425;1259;69124;-65
2023/06/18 01:46:01;;;;;;;6.60;6.00;;;;;;;22.28;100.00;99171.91;106863;1263;71304;-65
2023/06/18 01:48:34;;;;;;;7.60;6.10;;;;;;;22.27;100.00;99170.92;103910;1266;60761;-65
2023/06/18 01:51:04;;;;;;;7.10;6.30;;;;;;;22.27;100.00;99175.79;103815;1260;60147;-64
2023/06/18 01:53:32;;;;;;;7.00;6.40;;;;;;;22.26;100.00;99173.58;103980;1266;72803;-65
2023/06/18 01:56:00;;;;;;;7.60;6.90;;;;;;;22.23;100.00;99173.75;103783;1265;70174;-65
2023/06/18 01:58:33;;;;;;;11.40;6.30;;;;;;;22.23;100.00;99178.11;104015;1263;71441;-65
2023/06/18 02:01:02;;;;;;;6.80;6.20;;;;;;;22.20;100.00;99174.63;104039;1266;60297;-66
2023/06/18 02:03:32;;;;;;;9.20;6.20;;;;;;;22.18;100.00;99175.05;103822;1276;60034;-65
2023/06/18 02:06:00;;;;;;;7.70;6.30;;;;;;;22.20;100.00;99176.64;103967;1261;72293;-65
2023/06/18 02:08:27;;;;;;;10.50;7.00;;;;;;;22.15;100.00;99175.80;104246;1260;69301;-65
2023/06/18 02:10:56;;;;;;;7.30;6.70;;;;;;;22.08;100.00;99178.09;104291;1264;73388;-65
2023/06/18 02:13:23;;;;;;;7.10;6.50;;;;;;;22.06;100.00;99181.21;106739;1254;59861;-66
2023/06/18 02:15:52;;;;;;;8.00;6.70;;;;;;;22.07;100.00;99180.71;104682;1270;59739;-66
2023/06/18 02:18:22;;;;;;;8.90;6.60;;;;;;;22.04;100.00;99184.92;104244;1263;72722;-65
2023/06/18 02:20:50;;;;;;;9.20;6.60;;;;;;;22.07;100.00;99185.56;104387;1273;69465;-64
2023/06/18 02:23:17;;;;;;;;;;;;;;;22.04;100.00;99189.62;104315;1269;72303;-64
2023/06/18 02:25:45;;;;;;;11.10;6.80;;;;;;;21.98;100.00;99190.02;104188;1257;59848;-65
2023/06/18 02:28:14;;;;;;;7.90;6.80;;;;;;;21.97;100.00;99194.86;104201;1257;59833;-65
2023/06/18 02:30:41;;;;;;;8.80;6.60;;;;;;;22.04;100.00;99199.78;104469;1258;72823;-64
2023/06/18 02:33:10;;;;;;;10.90;7.60;;;;;;;22.03;100.00;99199.67;107501;1254;69188;-65
2023/06/18 02:35:39;;;;;;;9.40;6.60;;;;;;;22.03;100.00;99201.79;107284;1259;73343;-66
2023/06/18 02:38:09;;;;;;;10.50;7.40;;;;;;;22.09;100.00;99202.66;104421;1263;60177;-65
2023/06/18 02:40:37;;;;;;;12.90;7.40;;;;;;;22.09;100.00;99199.61;104427;1260;60579;-66
2023/06/18 02:43:05;;;;;;;14.90;7.10;;;;;;;22.12;100.00;99199.88;104267;1260;72910;-65
2023/06/18 02:45:32;;;;;;;10.00;7.90;;;;;;;22.11;100.00;99202.11;104393;1262;68859;-65
2023/06/18 02:48:00;;;;;;;8.80;7.20;;;;;;;22.09;100.00;99202.45;104609;1259;74335;-65
2023/06/18 02:50:28;;;;;;;9.30;7.40;;;;;;;22.10;100.00;99204.20;104081;1263;60736;-67
2023/06/18 02:52:56;;;;;;;7.80;6.80;;;;;;;22.12;100.00;99205.04;104281;1257;59807;-67
2023/06/18 08:30:10;;;;;;;7.00;5.70;;;;;;;30.12;43.36;99304.55;101644;1292;601789;-63
2023/06/18 08:32:38;;;;;;;7.10;5.40;;;;;;;30.07;42.46;99307.40;104304;1258;59823;-62
2023/06/18 08:35:06;;;;;;;7.90;5.50;;;;;;;30.08;43.15;99309.12;104452;1261;59946;-62
2023/06/18 08:37:35;;;;;;;6.90;5.50;;;;;;;30.13;43.12;99307.81;104314;1262;71952;-63
2023/06/18 08:40:03;;;;;;;6.20;5.60;;;;;;;30.18;42.65;99305.67;104233;1261;69060;-61
2023/06/18 08:42:31;;;;;;;5.20;4.80;;;;;;;30.19;42.36;99307.42;104697;1262;73384;-62
2023/06/18 08:44:59;;;;;;;14.00;5.30;;;;;;;30.21;43.06;99304.77;104138;1253;284334;-64
2023/06/18 08:47:27;;;;;;;5.90;5.30;;;;;;;30.27;41.88;99305.30;104901;1258;59729;-62
2023/06/18 08:49:57;;;;;;;6.30;5.50;;;;;;;30.36;41.33;99304.18;104366;1253;71901;-62
2023/06/18 08:52:25;;;;;;;8.00;5.20;;;;;;;30.42;42.64;99305.52;104291;1258;69143;-60
2023/06/18 08:54:56;;;;;;;5.20;4.70;;;;;;;30.50;41.82;99306.75;104296;1269;72364;-60
2023/06/18 08:57:38;;;;;;;6.10;5.20;;;;;;;30.54;39.11;99303.12;104431;1258;60122;-60
2023/06/18 09:00:07;;;;;;;6.10;5.20;;;;;;;30.61;39.44;99299.73;104422;1260;60675;-60
2023/06/18 09:02:35;;;;;;;6.60;5.50;;;;;;;30.65;38.61;99294.65;104454;1258;71847;-59
2023/06/18 09:05:03;;;;;;;5.40;5.00;;;;;;;30.67;38.78;99289.69;104454;1261;69445;-61
2023/06/18 09:07:31;;;;;;;5.50;5.10;;;;;;;30.70;39.04;99289.29;104586;1261;72417;-60
2023/06/18 09:09:59;;;;;;;5.50;5.10;;;;;;;30.74;38.23;99290.12;104255;1266;59310;-60
2023/06/18 09:12:27;;;;;;;5.10;4.70;;;;;;;30.74;37.67;99287.94;104325;1262;60103;-62
2023/06/18 09:14:55;;;;;;;5.90;5.50;;;;;;;30.67;37.83;99292.40;104584;1257;72869;-60
2023/06/18 09:17:24;;;;;;;5.50;5.00;;;;;;;30.62;38.10;99292.84;104320;1257;69599;-63
2023/06/18 09:19:52;;;;;;;6.00;5.20;;;;;;;30.65;38.20;99293.06;104745;1258;72431;-60
2023/06/18 09:22:21;;;;;;;9.60;8.00;;;;;;;30.71;37.95;99290.62;104404;1259;60189;-60
2023/06/18 09:24:58;;;;;;;7.70;6.50;;;;;;;30.78;37.36;99286.84;104609;1251;60284;-62
2023/06/18 09:27:33;;;;;;;7.10;5.60;;;;;;;30.78;36.86;99285.75;104308;1257;73268;-61
2023/06/18 09:30:01;;;;;;;7.80;5.00;;;;;;;30.78;36.81;99276.98;105311;1257;69266;-65
2023/06/18 09:32:29;;;;;;;4.80;4.30;;;;;;;30.86;35.44;99278.29;104739;1254;72912;-62
2023/06/18 09:34:56;;;;;;;;;;;;;;;30.90;35.33;99279.77;104529;1254;60217;-62
2023/06/18 09:37:25;;;;;;;4.40;4.10;;;;;;;30.90;34.82;99278.86;105805;1253;59568;-63
2023/06/18 09:39:53;;;;;;;6.60;4.60;;;;;;;30.90;34.73;99273.50;107864;1253;73536;-61
2023/06/18 09:42:27;;;;;;;4.90;4.50;;;;;;;30.93;33.99;99270.48;104634;1257;69944;-60
2023/06/18 09:44:55;;;;;;;6.40;4.40;;;;;;;30.93;33.18;99271.98;104807;1258;72551;-61
2023/06/18 09:47:23;;;;;;;6.80;4.80;;;;;;;31.04;33.08;99278.14;105400;1261;59735;-62
2023/06/18 09:49:52;;;;;;;4.90;4.60;;;;;;;31.14;32.20;99276.35;104825;1253;59739;-65
2023/06/18 09:52:26;;;;;;;5.00;4.50;;;;;;;31.25;32.13;99273.59;104365;1254;73123;-66
2023/06/18 09:54:55;;;;;;;5.70;4.80;;;;;;;31.42;31.31;99271.86;104257;1266;70247;-63
2023/06/18 09:57:23;;;;;;;4.70;4.30;;;;;;;31.57;30.07;99270.70;104337;1259;72688;-62
2023/06/18 10:00:11;;;;;;;4.80;4.30;;;;;;;31.73;29.45;99267.55;104506;1257;60806;-64
2023/06/18 10:02:39;;;;;;;11.10;4.80;;;;;;;31.85;29.57;99265.39;104391;1257;59709;-64
2023/06/18 10:05:07;;;;;;;5.40;4.50;;;;;;;32.00;29.98;99265.30;104379;1258;72955;-60
2023/06/18 10:07:35;;;;;;;5.10;4.60;;;;;;;32.06;29.69;99269.58;104342;1259;69500;-64
2023/06/18 10:10:03;;;;;;;5.20;4.70;;;;;;;32.13;28.97;99267.70;104388;1258;73754;-62
2023/06/18 10:12:31;;;;;;;5.30;4.90;;;;;;;32.16;28.87;99266.86;104343;1258;59779;-61
2023/06/18 10:14:59;;;;;;;5.50;5.00;;;;;;;32.21;28.89;99264.45;104209;1261;59678;-61
2023/06/18 10:17:31;;;;;;;5.30;4.60;;;;;;;32.25;28.46;99263.56;104344;1254;71670;-60
2023/06/18 10:20:07;;;;;;;5.70;4.80;;;;;;;32.30;27.67;99255.92;105009;1254;69660;-61
2023/06/18 10:22:45;;;;;;;5.80;5.20;;;;;;;32.26;27.43;99254.64;104685;1253;72611;-63
2023/06/18 10:25:13;;;;;;;6.00;5.40;;;;;;;32.33;27.67;99256.95;107026;1253;59769;-63
2023/06/18 10:27:41;;;;;;;5.60;5.10;;;;;;;32.43;27.00;99252.96;107306;1253;60716;-64
2023/06/18 10:30:10;;;;;;;5.20;4.70;;;;;;;32.46;26.70;99245.83;104612;1254;74636;-63
2023/06/18 10:32:38;;;;;;;6.30;5.20;;;;;;;32.48;26.91;99245.03;105216;1259;69342;-63
2023/06/18 10:35:08;;;;;;;6.20;5.50;;;;;;;32.51;26.55;99243.84;104383;1262;73321;-64
2023/06/18 10:37:36;;;;;;;5.40;5.00;;;;;;;32.53;26.69;99242.33;104521;1259;60891;-65
2023/06/18 10:40:06;;;;;;;5.50;5.00;;;;;;;32.53;26.29;99236.26;104570;1254;59748;-64
2023/06/18 10:42:34;;;;;;;6.00;5.00;;;;;;;32.55;26.85;99237.15;104310;1260;72795;-63
2023/06/18 10:45:08;;;;;;;5.20;4.70;;;;;;;32.53;26.70;99237.05;104436;1260;69627;-60
2023/06/18 10:47:36;;;;;;;5.60;5.10;;;;;;;32.45;26.67;99240.61;104259;1260;73364;-61
2023/06/18 10:50:07;;;;;;;5.20;4.70;;;;;;;32.39;27.27;99244.61;104757;1256;59808;-64
2023/06/18 10:52:36;;;;;;;6.20;4.50;;;;;;;32.42;27.34;99246.70;104417;1268;62351;-63
2023/06/18 10:55:08;;;;;;;6.90;5.00;;;;;;;32.34;27.58;99245.48;104342;1266;71846;-64
2023/06/18 10:57:43;;;;;;;5.50;5.00;;;;;;;32.31;27.65;99246.20;104561;1259;69165;-64
2023/06/18 11:00:29;;;;;;;6.80;5.00;;;;;;;32.23;27.86;99241.30;104362;1259;72679;-61
2023/06/18 11:03:01;;;;;;;6.40;5.00;;;;;;;32.15;28.32;99246.19;104480;1258;59868;-60
2023/06/18 11:05:35;;;;;;;7.60;5.30;;;;;;;32.03;28.52;99243.71;104512;1258;59715;-63
2023/06/18 11:08:07;;;;;;;6.30;4.50;;;;;;;31.95;28.63;99242.39;104489;1260;72087;-63
2023/06/18 11:10:47;;;;;;;5.50;5.00;;;;;;;31.91;29.26;99240.27;104274;1259;69351;-64
2023/06/18 11:13:16;;;;;;;7.00;5.20;;;;;;;31.91;30.51;99240.91;104358;1258;71190;-62
2023/06/18 11:16:00;;;;;;;6.30;4.80;;;;;;;31.91;30.03;99240.64;104278;1255;59830;-65
2023/06/18 11:18:29;;;;;;;5.60;5.10;;;;;;;31.90;29.29;99240.86;104274;1259;59358;-63
2023/06/18 11:20:58;;;;;;;6.20;5.70;;;;;;;31.89;29.93;99243.84;104434;1258;73283;-62
2023/06/18 11:23:26;;;;;;;9.10;5.30;;;;;;;31.93;28.94;99245.63;104613;1258;69575;-63
2023/06/18 11:25:57;;;;;;;5.50;5.00;;;;;;;31.95;28.89;99244.98;104517;1258;72508;-63
2023/06/18 11:28:25;;;;;;;6.10;5.10;;;;;;;31.99;28.60;99246.22;104614;1259;59792;-64
2023/06/18 11:31:00;;;;;;;5.80;5.10;;;;;;;32.05;29.03;99242.89;104412;1253;59870;-63
2023/06/18 11:33:29;;;;;;;5.30;4.90;;;;;;;32.08;29.00;99247.60;104747;1269;74158;-66
2023/06/18 11:36:11;;;;;;;5.10;4.60;;;;;;;32.13;28.41;99244.45;104407;1257;69719;-65
2023/06/18 11:38:40;;;;;;;5.40;4.90;;;;;;;32.18;28.78;99245.30;106895;1253;72377;-66
2023/06/18 11:41:08;;;;;;;5.50;5.00;;;;;;;32.24;28.41;99249.01;107981;1254;60244;-66
2023/06/18 11:43:46;;;;;;;5.50;5.10;;;;;;;32.28;28.18;99249.61;104500;1256;59749;-68
2023/06/18 11:46:35;;;;;;;7.20;5.00;;;;;;;32.31;28.10;99251.73;104583;1258;73253;-67
2023/06/18 11:49:03;;;;;;;5.20;4.80;;;;;;;32.37;28.32;99251.77;104634;1260;68566;-65
2023/06/18 11:51:31;;;;;;;5.50;5.10;;;;;;;32.36;28.14;99251.75;104935;1254;71451;-65
2023/06/18 11:54:03;;;;;;;7.00;5.10;;;;;;;32.38;28.19;99250.45;104661;1254;59826;-67
2023/06/18 11:56:30;;;;;;;5.00;4.60;;;;;;;32.36;28.33;99249.11;104460;1253;60128;-65
2023/06/18 11:58:59;;;;;;;5.10;4.70;;;;;;;32.34;28.03;99251.20;104409;1262;73320;-65
2023/06/18 12:01:31;;;;;;;8.90;5.10;;;;;;;32.33;28.53;99249.66;104541;1258;69271;-64
2023/06/18 12:04:06;;;;;;;12.40;5.50;;;;;;;32.34;29.14;99245.73;104311;1259;71460;-62
2023/06/18 12:06:35;;;;;;;5.50;5.00;;;;;;;32.34;28.26;99243.21;104475;1254;60204;-64
2023/06/18 12:09:07;;;;;;;5.00;4.60;;;;;;;32.37;28.60;99244.71;104271;1257;60415;-64
2023/06/18 12:11:51;;;;;;;6.70;4.60;;;;;;;32.38;28.90;99244.99;104452;1257;71978;-63
2023/06/18 12:14:38;;;;;;;5.70;5.30;;;;;;;32.39;29.28;99239.80;104565;1259;70121;-65
2023/06/18 12:17:16;;;;;;;5.70;5.10;;;;;;;32.45;30.40;99243.28;104264;1275;72918;-65
2023/06/18 12:19:49;;;;;;;5.40;5.00;;;;;;;32.55;30.79;99236.83;104361;1254;59784;-64
2023/06/18 12:22:17;;;;;;;5.40;5.00;;;;;;;32.65;29.83;99233.89;104712;1259;60181;-63
2023/06/18 12:24:45;;;;;;;8.40;4.60;;;;;;;32.75;29.66;99236.14;104339;1259;72817;-62
2023/06/18 12:27:14;;;;;;;5.20;4.80;;;;;;;32.78;28.94;99234.61;106506;1254;69310;-64
2023/06/18 12:29:44;;;;;;;5.00;4.50;;;;;;;32.84;29.32;99228.28;108138;1254;72140;-65
2023/06/18 12:32:12;;;;;;;4.90;4.50;;;;;;;32.97;29.24;99230.20;104944;1255;60745;-64
2023/06/18 12:34:41;;;;;;;5.00;4.60;;;;;;;33.11;28.82;99231.31;104509;1260;59718;-67
2023/06/18 12:37:09;;;;;;;5.50;5.00;;;;;;;33.27;28.22;99229.71;104771;1258;73669;-63
2023/06/18 12:39:37;;;;;;;5.20;4.80;;;;;;;33.35;28.10;99236.39;104473;1254;69170;-65
2023/06/18 12:42:09;;;;;;;5.80;5.40;;;;;;;33.41;28.16;99230.55;104461;1267;72659;-66
2023/06/18 12:44:38;;;;;;;7.40;5.00;;;;;;;33.53;28.30;99229.96;104765;1254;60620;-65
2023/06/18 12:47:06;;;;;;;5.20;4.80;;;;;;;33.66;28.54;99229.67;104649;1269;60723;-66
2023/06/18 12:49:38;;;;;;;5.60;5.10;;;;;;;33.78;27.13;99232.33;104621;1259;74137;-66
2023/06/18 12:52:16;;;;;;;5.10;4.50;;;;;;;33.80;27.42;99228.90;104499;1254;69161;-66
2023/06/18 12:54:45;;;;;;;5.70;4.80;;;;;;;33.91;27.41;99226.92;104678;1255;72126;-66
2023/06/18 12:57:16;;;;;;;5.40;4.80;;;;;;;34.00;26.88;99222.70;104488;1254;60504;-66
2023/06/18 12:59:50;;;;;;;5.60;4.90;;;;;;;34.07;26.70;99223.97;104462;1255;60570;-64
2023/06/18 13:02:19;;;;;;;5.30;4.80;;;;;;;34.15;26.05;99222.55;104550;1261;74063;-65
2023/06/18 13:04:47;;;;;;;5.00;4.50;;;;;;;34.20;26.20;99220.30;104628;1258;69745;-66
2023/06/18 13:07:15;;;;;;;6.30;5.50;;;;;;;34.25;25.82;99222.42;104758;1254;72164;-66
2023/06/18 13:09:43;;;;;;;5.30;4.90;;;;;;;34.32;26.01;99221.45;104542;1269;60091;-67
2023/06/18 13:12:12;;;;;;;5.50;5.00;;;;;;;34.37;25.77;99218.45;104992;1254;60632;-65
2023/06/18 13:14:41;;;;;;;6.20;5.00;;;;;;;34.34;25.93;99219.45;104413;1260;73625;-67
2023/06/18 13:17:09;;;;;;;5.20;4.80;;;;;;;34.36;25.52;99214.80;104488;1254;69959;-65
2023/06/18 13:19:37;;;;;;;6.20;4.40;;;;;;;34.34;25.46;99210.77;104514;1253;73462;-66
2023/06/18 13:24:27;;;;;;;4.70;4.40;;;;;;;34.05;26.19;99213.20;102038;1286;601107;-69
2023/06/18 13:26:55;;;;;;;6.80;4.80;;;;;;;34.30;25.68;99212.83;103963;1266;59873;-65
2023/06/18 13:29:24;;;;;;;5.50;4.80;;;;;;;34.25;25.66;99206.59;103956;1265;59363;-65
2023/06/18 13:31:54;;;;;;;6.00;5.50;;;;;;;34.16;25.44;99207.23;104127;1266;70924;-66
2023/06/18 13:34:22;;;;;;;5.70;5.10;;;;;;;33.99;25.73;99202.17;103771;1268;69527;-65
2023/06/18 13:36:50;;;;;;;4.70;4.40;;;;;;;34.00;26.14;99202.11;103706;1270;72449;-67
2023/06/18 13:39:18;;;;;;;5.30;4.80;;;;;;;34.06;26.72;99196.11;104213;1267;60910;-67
2023/06/18 13:41:46;;;;;;;6.10;4.70;;;;;;;34.13;27.06;99197.34;107250;1263;59791;-68
2023/06/18 13:44:13;;;;;;;4.90;4.50;;;;;;;34.25;26.67;99194.21;104735;1263;72203;-67
2023/06/18 13:46:41;;;;;;;5.20;4.70;;;;;;;34.33;25.96;99198.19;104297;1261;69190;-68
2023/06/18 13:49:09;;;;;;;5.60;5.00;;;;;;;34.38;25.71;99193.45;104172;1264;72340;-67
2023/06/18 13:51:37;;;;;;;4.90;4.60;;;;;;;34.40;25.66;99198.00;104710;1263;59945;-67
2023/06/18 13:54:05;;;;;;;5.40;4.90;;;;;;;34.41;25.70;99192.65;104099;1266;59797;-67
2023/06/18 13:56:33;;;;;;;4.90;4.50;;;;;;;34.39;25.85;99193.10;103831;1260;73284;-65
2023/06/18 13:59:01;;;;;;;6.50;4.90;;;;;;;34.29;25.72;99192.95;104020;1261;70149;-66
2023/06/18 14:01:28;;;;;;;5.20;4.80;;;;;;;34.19;26.17;99191.15;103974;1264;73795;-65
2023/06/18 14:03:56;;;;;;;5.20;4.70;;;;;;;34.15;26.42;99189.71;104005;1266;60726;-65
2023/06/18 14:06:24;;;;;;;5.10;4.60;;;;;;;34.20;26.09;99186.27;104374;1261;59762;-66
2023/06/18 14:08:52;;;;;;;8.60;4.30;;;;;;;34.22;27.33;99186.92;104393;1259;73771;-66
2023/06/18 14:11:20;;;;;;;5.20;4.80;;;;;;;34.27;26.41;99184.17;104470;1257;69080;-66
2023/06/18 14:13:48;;;;;;;5.20;4.80;;;;;;;34.25;25.49;99185.04;104539;1257;71865;-66
2023/06/18 14:16:16;;;;;;;5.50;4.60;;;;;;;34.25;25.69;99180.50;104464;1260;59872;-66
2023/06/18 14:18:44;;;;;;;8.00;5.20;;;;;;;34.27;26.06;99187.83;104534;1254;59777;-65
2023/06/18 14:21:12;;;;;;;5.50;4.70;;;;;;;34.37;25.88;99182.89;104804;1255;73232;-65
2023/06/18 14:23:41;;;;;;;5.30;4.70;;;;;;;34.47;26.31;99182.57;104841;1257;69967;-68
2023/06/18 14:26:09;;;;;;;4.80;4.10;;;;;;;34.51;26.12;99181.70;104641;1254;72276;-63
2023/06/18 14:28:40;;;;;;;6.00;4.40;;;;;;;34.63;26.72;99183.04;104519;1254;59618;-67
2023/06/18 14:31:08;;;;;;;8.70;4.70;;;;;;;34.77;26.25;99189.83;105600;1254;59653;-65
2023/06/18 14:33:36;;;;;;;5.30;4.60;;;;;;;34.81;25.72;99192.25;107736;1254;71927;-66
2023/06/18 14:36:04;;;;;;;5.40;4.90;;;;;;;34.80;25.34;99192.01;104999;1257;69228;-66
2023/06/18 14:38:31;;;;;;;4.70;4.30;;;;;;;34.84;25.33;99193.23;104765;1254;72622;-66
2023/06/18 14:40:59;;;;;;;4.60;4.20;;;;;;;34.96;25.38;99189.00;104345;1264;60144;-65
2023/06/18 14:43:27;;;;;;;7.40;4.50;;;;;;;35.28;25.09;99191.24;106284;1254;59703;-68
2023/06/18 14:45:55;;;;;;;5.20;4.50;;;;;;;35.63;25.04;99190.19;108330;1251;73070;-66
2023/06/18 14:48:22;;;;;;;5.50;4.50;;;;;;;36.46;24.53;99187.69;108428;1250;69478;-65
2023/06/18 14:50:50;;;;;;;6.50;4.80;;;;;;;37.28;23.75;99179.88;105851;1254;72607;-66
2023/06/18 14:53:18;;;;;;;5.30;4.80;;;;;;;37.10;23.29;99181.56;104714;1258;59825;-66
2023/06/18 14:55:46;;;;;;;9.70;4.40;;;;;;;36.88;24.41;99182.95;104369;1253;59877;-66
2023/06/18 14:58:15;;;;;;;5.50;4.00;;;;;;;36.63;25.03;99184.30;104478;1257;72180;-66
2023/06/18 15:00:43;;;;;;;5.90;4.10;;;;;;;36.38;24.82;99189.30;104558;1254;69182;-68
2023/06/18 15:03:11;;;;;;;5.90;4.50;;;;;;;36.28;25.04;99192.09;104568;1256;72377;-65
2023/06/18 15:05:39;;;;;;;5.40;4.90;;;;;;;36.32;24.87;99189.24;104434;1253;60175;-65
2023/06/18 15:08:07;;;;;;;4.30;4.00;;;;;;;36.28;25.21;99187.21;104222;1254;60612;-64
2023/06/18 15:10:34;;;;;;;4.30;4.00;;;;;;;36.10;25.09;99188.70;104392;1253;72218;-65
2023/06/18 15:13:02;;;;;;;5.40;4.20;;;;;;;35.86;25.75;99194.06;104641;1251;69193;-63
2023/06/18 15:15:30;;;;;;;4.70;4.10;;;;;;;35.55;25.34;99191.80;104902;1251;72984;-64
2023/06/18 15:17:58;;;;;;;4.90;4.50;;;;;;;35.29;25.69;99193.20;104505;1253;60698;-65
2023/06/18 15:20:37;;;;;;;4.90;4.50;;;;;;;35.03;25.90;99190.05;104452;1251;60604;-63
2023/06/18 15:23:05;;;;;;;4.90;4.50;;;;;;;34.87;25.93;99189.61;104287;1257;73708;-64
2023/06/18 15:25:33;;;;;;;5.20;4.70;;;;;;;34.66;26.00;99190.11;104413;1270;70150;-62
2023/06/18 15:28:01;;;;;;;5.40;5.00;;;;;;;34.41;25.79;99188.54;104598;1254;71412;-62
2023/06/18 15:30:28;;;;;;;5.40;4.80;;;;;;;34.12;26.03;99190.41;104670;1251;60270;-62
2023/06/18 15:32:56;;;;;;;5.30;4.80;;;;;;;33.90;26.69;99194.34;104615;1251;59759;-64
2023/06/18 15:35:24;;;;;;;5.30;4.70;;;;;;;33.63;26.85;99195.83;104333;1256;72882;-63
2023/06/18 15:37:53;;;;;;;6.60;4.90;;;;;;;33.46;26.75;99199.35;104453;1255;69190;-63
2023/06/18 15:40:21;;;;;;;4.60;4.30;;;;;;;33.35;27.11;99201.31;105679;1251;72254;-62
2023/06/18 15:42:49;;;;;;;4.70;4.10;;;;;;;33.27;27.27;99204.04;108447;1252;59747;-63
2023/06/18 15:45:16;;;;;;;6.70;4.70;;;;;;;33.24;27.16;99202.21;105277;1256;59673;-64
2023/06/18 15:47:44;;;;;;;5.50;4.50;;;;;;;33.15;27.45;99200.45;104569;1256;73957;-68
2023/06/18 15:50:12;;;;;;;5.10;4.60;;;;;;;33.19;28.42;99202.93;108374;1252;69371;-62
2023/06/18 15:52:40;;;;;;;6.10;4.90;;;;;;;33.55;27.54;99202.07;108384;1253;73010;-68
2023/06/18 15:55:08;;;;;;;8.50;4.40;;;;;;;33.66;28.74;99205.38;106350;1253;60725;-71
2023/06/18 15:57:36;;;;;;;5.20;4.80;;;;;;;33.68;28.63;99206.25;104531;1254;59845;-70
2023/06/18 16:00:05;;;;;;;6.20;4.30;;;;;;;33.54;28.50;99208.58;104364;1259;72903;-69
2023/06/18 16:02:35;;;;;;;5.70;4.00;;;;;;;33.30;27.65;99206.77;104566;1270;68139;-67
2023/06/18 16:05:03;;;;;;;6.60;4.80;;;;;;;33.08;28.60;99207.25;104312;1254;72474;-68
2023/06/18 16:07:38;;;;;;;5.50;5.00;;;;;;;32.85;28.89;99210.57;104578;1257;59872;-69
2023/06/18 16:10:06;;;;;;;4.90;4.10;;;;;;;32.65;28.95;99211.36;104575;1254;59845;-69
2023/06/18 16:12:34;;;;;;;5.70;5.20;;;;;;;32.47;30.92;99216.15;104420;1263;73665;-71
2023/06/18 16:15:02;;;;;;;5.90;4.40;;;;;;;32.30;31.03;99218.67;104672;1256;69095;-68
2023/06/18 16:17:33;;;;;;;4.80;4.40;;;;;;;32.20;30.40;99220.99;104560;1253;72421;-69
2023/06/18 16:20:00;;;;;;;5.10;4.80;;;;;;;32.18;31.30;99224.09;104479;1257;60069;-68
2023/06/18 16:22:28;;;;;;;5.90;4.70;;;;;;;32.05;33.46;99226.61;104395;1257;59908;-69
2023/06/18 16:24:56;;;;;;;5.10;4.70;;;;;;;31.84;33.76;99232.05;104392;1257;72801;-69
2023/06/18 16:27:25;;;;;;;6.20;5.00;;;;;;;31.65;34.78;99234.07;104528;1254;68321;-68
2023/06/18 16:29:53;;;;;;;5.90;4.80;;;;;;;31.50;35.15;99231.64;104583;1267;72392;-68
2023/06/18 16:32:20;;;;;;;7.10;5.20;;;;;;;31.37;34.02;99230.22;104356;1251;60610;-67
2023/06/18 16:34:48;;;;;;;5.30;4.80;;;;;;;31.24;37.67;99233.44;108412;1251;60032;-68
2023/06/18 16:37:21;;;;;;;6.60;5.20;;;;;;;31.06;38.89;99233.45;105623;1251;73686;-67
2023/06/18 16:39:49;;;;;;;12.60;5.20;;;;;;;30.89;40.71;99235.05;104417;1257;69300;-65
2023/06/18 16:42:17;;;;;;;5.80;4.80;;;;;;;30.71;41.37;99239.61;108457;1251;72613;-68
2023/06/18 16:44:45;;;;;;;6.00;4.50;;;;;;;30.58;40.04;99239.02;106865;1253;60398;-67
2023/06/18 16:47:12;;;;;;;;;;;;;;;30.55;40.32;99243.13;105288;1254;60330;-66
2023/06/18 16:49:40;;;;;;;5.90;4.90;;;;;;;30.42;43.04;99242.46;105014;1254;72042;-67
2023/06/18 16:52:07;;;;;;;;;;;;;;;30.25;44.77;99244.98;104841;1254;68412;-67
2023/06/18 16:54:35;;;;;;;8.20;4.50;;;;;;;30.13;46.21;99247.63;104673;1257;72951;-67
2023/06/18 16:57:03;;;;;;;7.20;4.90;;;;;;;30.03;46.50;99251.34;104370;1252;60105;-67
2023/06/18 16:59:31;;;;;;;6.10;5.10;;;;;;;29.96;48.17;99251.46;104594;1253;61032;-66
2023/06/18 17:01:59;;;;;;;;;;;;;;;29.89;52.19;99252.64;104717;1254;73698;-67
2023/06/18 17:04:27;;;;;;;5.20;4.70;;;;;;;29.77;55.01;99256.16;104771;1257;69045;-67
2023/06/18 17:06:55;;;;;;;6.50;5.00;;;;;;;29.67;57.45;99256.41;104619;1253;72708;-67
2023/06/18 17:09:22;;;;;;;;;;;;;;;29.61;52.79;99255.67;104313;1254;59732;-66
2023/06/18 17:11:50;;;;;;;5.40;4.90;;;;;;;29.49;53.44;99260.38;104573;1253;59641;-66
2023/06/18 17:14:18;;;;;;;6.60;5.40;;;;;;;29.39;49.36;99259.14;104316;1266;72118;-66
2023/06/18 17:16:46;;;;;;;;;;;;;;;29.32;45.05;99262.58;104649;1254;69267;-69
2023/06/18 17:19:13;;;;;;;7.20;5.10;;;;;;;29.23;46.97;99260.06;104712;1269;71804;-67
2023/06/18 17:21:41;;;;;;;7.30;5.30;;;;;;;29.17;50.21;99258.42;104901;1254;59765;-67
2023/06/18 17:24:09;;;;;;;;;;;;;;;29.06;49.93;99258.92;104663;1254;60050;-66
2023/06/18 17:26:37;;;;;;;6.50;5.40;;;;;;;28.94;53.60;99261.77;104466;1257;73325;-68
2023/06/18 17:29:08;;;;;;;5.70;5.20;;;;;;;28.86;55.09;99266.36;104954;1260;69420;-67
2023/06/18 17:31:36;;;;;;;7.30;5.20;;;;;;;28.78;57.60;99264.90;104555;1253;73089;-68
2023/06/18 17:34:03;;;;;;;;;;;;;;;28.71;57.53;99268.25;104393;1266;60566;-68
2023/06/18 17:36:31;;;;;;;10.30;5.40;;;;;;;28.62;60.47;99266.70;104473;1256;60553;-67
2023/06/18 17:38:59;;;;;;;7.20;5.30;;;;;;;28.51;60.07;99264.73;107220;1252;74517;-68
2023/06/18 17:41:27;;;;;;;7.70;5.70;;;;;;;28.42;60.69;99268.11;105813;1254;69032;-68
2023/06/18 17:43:55;;;;;;;6.90;5.20;;;;;;;28.33;63.14;99274.91;108539;1251;72513;-68
2023/06/18 17:46:22;;;;;;;6.30;5.80;;;;;;;28.28;63.98;99275.55;105181;1254;60517;-67
2023/06/18 17:48:50;;;;;;;;;;;;;;;28.15;66.22;99273.60;104720;1257;61019;-65
2023/06/18 17:51:18;;;;;;;6.30;5.50;;;;;;;28.00;69.82;99277.00;104621;1260;73888;-63
2023/06/18 17:53:46;;;;;;;9.90;5.90;;;;;;;27.84;67.67;99274.61;104977;1251;68655;-67
2023/06/18 17:56:14;;;;;;;7.00;6.20;;;;;;;27.72;67.35;99279.11;104621;1257;72641;-66
2023/06/18 17:58:42;;;;;;;6.70;6.00;;;;;;;27.63;67.81;99282.46;104337;1257;60427;-63
2023/06/18 18:01:10;;;;;;;;;;;;;;;27.53;68.19;99279.56;104610;1255;60537;-64
2023/06/18 18:03:38;;;;;;;6.50;5.60;;;;;;;27.42;70.99;99283.76;104347;1256;73697;-63
2023/06/18 18:06:10;;;;;;;8.40;5.70;;;;;;;27.32;68.05;99287.86;104505;1267;69719;-63
2023/06/18 18:08:38;;;;;;;6.40;5.90;;;;;;;27.22;71.34;99294.37;104474;1256;73376;-62
2023/06/18 18:11:06;;;;;;;6.50;5.70;;;;;;;27.16;72.39;99297.91;104377;1252;60728;-63
2023/06/18 18:13:34;;;;;;;;;;;;;;;27.09;71.07;99303.89;104353;1257;60705;-66
2023/06/18 18:16:01;;;;;;;;;;;;;;;26.98;70.84;99306.89;104484;1255;73568;-64
2023/06/18 18:18:29;;;;;;;6.00;5.40;;;;;;;26.87;68.80;99309.42;104416;1257;69595;-64
2023/06/18 18:20:57;;;;;;;;;;;;;;;26.81;64.04;99312.18;105024;1254;72510;-63